Terminal Aerodrome Forecast
Issued by NWS Grand Junction, CO

Home | Current Version | Previous Version | Text Only | Print | Product List | Glossary On
Versions: 1 2 3 4 5 6 7 8 9 10 11 12 13 14 15 16 17 18 19 20 21 22 23 24 25 26 27 28 29 30 31 32
000
FTUS45 KGJT 230520
TAFGJT
TAF
KGJT 230520Z 2306/2406 13012KT P6SM SCT080 SCT120
     FM231200 12012KT P6SM VCSH SCT050 BKN120
     FM231500 24010KT P6SM VCSH BKN120
     FM231800 24012G20KT P6SM VCSH SCT080 BKN120
     FM240000 27012G20KT P6SM BKN200=

USA.gov is the U.S. government's official web portal to all federal, state and local government web resources and services.